Terminal Aerodrome Forecast
Issued by NWS Anchorage, AK

Home | Current Version | Previous Version | Text Only | Print | Product List | Glossary On
Versions: 1 2 3 4 5 6 7 8 9 10 11 12 13 14 15 16 17 18 19 20 21
000
FTAK31 PANC 052057 AAB
TAFANC
TAF AMD
PANC 052057Z 0521/0624 36003KT P6SM FEW007
     FM060200 36006KT P6SM FEW040 BKN120
     FM060900 36009KT P6SM SCT035 OVC060=

USA.gov is the U.S. government's official web portal to all federal, state and local government web resources and services.